Warruwi, Australia
Current Conditions -  °F | °C
As of 10:30 PM on Thursday 30 Oct 2014 (Local Time) from YPDN Reporting Station
Few Clouds Few Clouds  
Wind Chill: 82°   Ceiling: Unl
Heat Index: 88°   Visibility: 6mi
Dew Point: 73°   Wind: 13mph
Humidity: 74%   Direction: 300°WNW
Pressure: 29.8"   Gusts: NA
Location:  11.65°S, 133.4°E
Report Text: YPDN 301330Z 30011KT 9999 FEW019 28/23 Q1009
Loading
Personal Weather Stations






























Interactive Weather Map
Tropical Storm Tracking
New forecast layout! Learn more

10-Day Weather Forecast

Advertisements
Track Severe Weather on mobile